Airfield :
LOGIN :

Register | Disclaimer

   EN    FR    IT 

 










Legend :    VFR   Marginal VFR   IFR   Intensive IFR   Very Intensive IFR
Visi :
Ceiling :
>= 8 km
>= 3000ft
5 to 8 km
1000 to 3000 ft
1500m to 5 km
500 to 1000 ft
800 to 1500m
200 to 500 ft
< 800m
< 200 ft
Symbols :   Thunderstorms  Fog  Heavy snow  Heavy precipitations  Wind > 20 kt
SIGMETs :     Misc.  Thunderstorms  Icing  Turbulence  Mountain Waves  Volcanic Ashes






- Airport Elevation : 235 ft
- IATA code : BZG


EPBY - Bydgoszcz

CURRENT METAR :
  • 261100Z 28012KT 9999 OVC010 01/M01 Q1006

EXPIRED METARs :
  • 261030Z 28011KT 9999 OVC011 01/M01 Q1006
  • 261000Z 28011KT 9999 SCT012 OVC014 01/M01 Q1006
  • 260930Z 28010KT 9999 SCT012 BKN014 01/M02 Q1006
  • 260900Z 28011KT 9999 SCT010 BKN013 01/M01 Q1006
  • 260830Z 28014KT 9999 SCT011 BKN013 00/M02 Q1006
  • 260800Z 28011KT 9999 SCT012 BKN017 00/M01 Q1006

TAF TAF EPBY
Valid from the 26 at 06:00 until the 27 at 06:00 UTC


260530Z 2606/2706 28012KT 9999 BKN020
PROB40
TEMPO 2606/2615 28015G26KT SCT008 BKN014
PROB30
TEMPO 2615/2701 5000 -SN BR BKN005 OVC012



MET'MAP, your aeronautical weather chart ! - Copyright ORBIFLY December 2007 - Disclaimer

ORBIFLY MET'MAP TEAM :

Programming & Development : Alexandra Zaïnal
Concept & original design : Baudouin d'Aumeries
Assistance for programming : Marc-Olivier Méhu
Technical & hardware support : Manuel Goepfert

Contact : metmap@orbifly.com




SOURCES & CREDITS :

   NOAA